Time;durP1;ratioP1;P1;durP2;ratioP2;P2;SDS_P1;SDS_P2;PMS_P1;PMS_P2;Temp;Humidity;BMP_temperature;BMP_pressure;BME280_temperature;BME280_humidity;BME280_pressure;Samples;Min_cycle;Max_cycle;Signal;HPM_P1;HPM_P2
2022/03/31 00:00:44;;;;;;;20.40;5.45;;;;;;;10.67;81.84;97139.66;4380454;32;20087;-72
2022/03/31 00:03:13;;;;;;;15.07;5.40;;;;;;;10.64;81.86;97132.97;4380614;32;20095;-72
2022/03/31 00:05:41;;;;;;;13.55;5.47;;;;;;;10.69;81.48;97135.06;4380591;32;20086;-72
2022/03/31 00:08:10;;;;;;;15.93;5.57;;;;;;;10.65;81.31;97126.75;4380775;32;20083;-73
2022/03/31 00:10:40;;;;;;;15.88;5.43;;;;;;;10.53;81.96;97130.81;4380496;32;20083;-72
2022/03/31 00:13:13;;;;;;;14.90;5.97;;;;;;;10.53;82.07;97134.22;4380726;32;20457;-72
2022/03/31 00:15:41;;;;;;;13.45;6.47;;;;;;;10.48;82.44;97140.00;4380551;32;20107;-72
2022/03/31 00:18:10;;;;;;;14.57;6.05;;;;;;;10.58;81.96;97131.91;4380152;32;20082;-72
2022/03/31 00:20:37;;;;;;;13.70;5.68;;;;;;;10.55;81.88;97126.19;4380472;32;20147;-72
2022/03/31 00:23:08;;;;;;;19.00;6.15;;;;;;;10.64;81.50;97128.56;4380342;32;20718;-72
2022/03/31 00:25:35;;;;;;;18.55;7.05;;;;;;;10.54;81.61;97122.75;4380618;32;20090;-72
2022/03/31 00:28:05;;;;;;;15.38;6.60;;;;;;;10.49;82.08;97125.09;4380447;32;20109;-72
2022/03/31 00:30:34;;;;;;;15.05;6.22;;;;;;;10.75;80.65;97118.63;4380415;32;20638;-72
2022/03/31 00:33:02;;;;;;;14.90;6.18;;;;;;;10.86;79.72;97114.78;4380363;32;20492;-72
2022/03/31 00:35:29;;;;;;;17.73;5.03;;;;;;;10.72;80.33;97104.09;4380275;32;20129;-72
2022/03/31 00:37:57;;;;;;;12.00;5.28;;;;;;;11.08;78.96;97103.41;4380275;32;20478;-72
2022/03/31 00:40:25;;;;;;;15.30;5.40;;;;;;;10.95;78.45;97105.84;4380262;32;20079;-72
2022/03/31 00:42:55;;;;;;;15.68;6.45;;;;;;;10.76;79.74;97109.78;4366899;32;20090;-72
2022/03/31 00:45:28;;;;;;;15.70;6.05;;;;;;;10.62;80.25;97109.59;4380430;32;20086;-72
2022/03/31 00:47:56;;;;;;;13.07;6.00;;;;;;;10.52;80.49;97108.22;4380263;32;20487;-72
2022/03/31 00:50:24;;;;;;;12.35;5.40;;;;;;;10.73;79.57;97097.06;4374271;32;20162;-72
2022/03/31 00:52:51;;;;;;;16.75;5.85;;;;;;;10.67;79.88;97101.19;4380197;32;20099;-72
2022/03/31 00:55:39;;;;;;;19.83;6.72;;;;;;;10.55;81.42;97092.16;4380213;32;20121;-72
2022/03/31 00:58:06;;;;;;;15.50;5.70;;;;;;;10.63;80.99;97090.28;4366633;32;20491;-72
2022/03/31 01:00:34;;;;;;;13.68;5.60;;;;;;;10.63;81.03;97082.41;4380100;32;20105;-72
2022/03/31 01:03:02;;;;;;;14.75;5.82;;;;;;;10.51;81.86;97083.84;4380115;32;20121;-72
2022/03/31 01:05:29;;;;;;;16.40;6.72;;;;;;;10.68;81.33;97070.59;4379923;32;20517;-72
2022/03/31 01:07:56;;;;;;;12.18;5.72;;;;;;;10.73;81.33;97068.25;4380227;32;20121;-72
2022/03/31 01:10:24;;;;;;;16.10;6.47;;;;;;;10.95;80.00;97071.78;4379993;32;20137;-72
2022/03/31 01:12:51;;;;;;;14.52;6.62;;;;;;;10.92;80.34;97070.31;4366879;32;20098;-72
2022/03/31 01:15:19;;;;;;;12.45;6.35;;;;;;;10.86;81.02;97063.19;4380058;32;20163;-72
2022/03/31 01:17:49;;;;;;;16.00;7.05;;;;;;;10.98;81.17;97064.34;4379750;32;20392;-72
2022/03/31 01:20:20;;;;;;;16.12;6.60;;;;;;;10.52;83.74;97061.09;4379939;32;20083;-72
2022/03/31 01:22:50;;;;;;;14.65;6.78;;;;;;;10.74;81.61;97057.59;4379929;32;20154;-72
2022/03/31 01:25:18;;;;;;;14.70;7.30;;;;;;;10.64;82.31;97065.72;4379953;32;20094;-72
2022/03/31 01:27:46;;;;;;;19.33;7.37;;;;;;;10.47;83.50;97059.81;4380254;32;20090;-72
2022/03/31 01:30:16;;;;;;;19.92;7.53;;;;;;;10.88;80.50;97055.94;4379819;32;20197;-72
2022/03/31 01:32:45;;;;;;;13.80;7.43;;;;;;;10.71;81.66;97055.31;4380033;32;20454;-72
2022/03/31 01:35:13;;;;;;;17.20;7.55;;;;;;;11.04;79.82;97054.97;4379881;32;20121;-72
2022/03/31 01:37:44;;;;;;;13.50;6.70;;;;;;;10.94;80.97;97049.19;4379815;32;20113;-72
2022/03/31 01:40:12;;;;;;;15.18;7.03;;;;;;;10.81;81.72;97045.41;4379725;32;20150;-72
2022/03/31 01:42:41;;;;;;;17.90;7.82;;;;;;;10.42;84.53;97051.69;4379691;32;20157;-72
2022/03/31 01:45:11;;;;;;;15.25;7.40;;;;;;;9.83;89.28;97043.66;4379882;32;20331;-72
2022/03/31 01:47:38;;;;;;;14.45;7.05;;;;;;;10.29;85.86;97049.66;4379798;32;20152;-72
2022/03/31 01:50:09;;;;;;;16.50;6.85;;;;;;;10.46;84.45;97046.91;4379776;32;20091;-72
2022/03/31 01:52:37;;;;;;;15.77;6.80;;;;;;;10.36;85.20;97043.75;4379734;32;20165;-72
2022/03/31 01:55:05;;;;;;;18.35;7.55;;;;;;;10.19;86.44;97041.25;4366232;32;20110;-72
2022/03/31 01:57:33;;;;;;;16.55;7.75;;;;;;;10.06;87.50;97041.84;4379699;32;20094;-72
2022/03/31 02:00:02;;;;;;;15.25;7.60;;;;;;;9.94;87.71;97040.62;4379713;32;20464;-72
2022/03/31 02:02:39;;;;;;;20.70;7.32;;;;;;;10.59;83.79;97030.59;4379795;32;20161;-72
2022/03/31 02:05:07;;;;;;;20.27;8.15;;;;;;;10.80;81.54;97025.44;4379606;32;20354;-72
2022/03/31 02:07:36;;;;;;;18.30;7.65;;;;;;;10.85;81.44;97024.06;4379627;32;20117;-72
2022/03/31 02:10:04;;;;;;;17.25;8.15;;;;;;;10.93;80.63;97021.34;4379696;32;20099;-72
2022/03/31 02:12:33;;;;;;;16.90;7.65;;;;;;;10.70;81.68;97014.41;4379532;32;20476;-72
2022/03/31 02:15:00;;;;;;;23.67;8.70;;;;;;;10.77;81.01;97017.94;4379736;32;20098;-72
2022/03/31 02:17:27;;;;;;;19.75;8.82;;;;;;;10.72;81.15;97022.91;4378709;32;20149;-72
2022/03/31 02:19:55;;;;;;;16.77;8.15;;;;;;;10.82;81.47;97017.38;4379411;32;20110;-72
2022/03/31 02:22:22;;;;;;;21.17;8.52;;;;;;;10.93;79.59;97009.06;4379641;32;20095;-72
2022/03/31 02:24:49;;;;;;;19.23;8.00;;;;;;;10.70;80.94;97009.16;4379566;32;20095;-72
2022/03/31 02:27:16;;;;;;;18.62;8.52;;;;;;;10.49;81.67;97017.75;4379598;32;20190;-72
2022/03/31 02:29:44;;;;;;;16.77;8.00;;;;;;;10.37;83.05;97014.78;4379415;32;20086;-72
2022/03/31 02:32:11;;;;;;;17.55;7.70;;;;;;;10.42;83.31;97014.25;4379631;32;20106;-72
2022/03/31 02:34:38;;;;;;;13.88;7.22;;;;;;;10.07;84.47;97019.91;4379608;32;20086;-72
2022/03/31 02:37:05;;;;;;;18.00;8.23;;;;;;;9.98;85.17;97018.38;4379679;32;20087;-72
2022/03/31 02:39:32;;;;;;;16.05;7.93;;;;;;;10.51;82.91;97009.69;4379341;32;20445;-72
2022/03/31 02:42:03;;;;;;;22.02;8.88;;;;;;;10.73;80.49;97008.00;4379343;32;20544;-72
2022/03/31 02:44:30;;;;;;;20.50;8.23;;;;;;;10.97;79.04;97006.91;4379433;32;20140;-72
2022/03/31 02:46:57;;;;;;;14.35;7.68;;;;;;;11.05;78.65;97001.53;4379470;32;20086;-72
2022/03/31 02:49:25;;;;;;;18.15;8.27;;;;;;;11.22;77.41;96996.09;4379194;32;20110;-72
2022/03/31 02:51:52;;;;;;;17.55;8.05;;;;;;;11.24;78.13;96991.47;4379694;32;20094;-72
2022/03/31 02:57:05;;;;;;;15.65;9.05;;;;;;;10.73;80.55;96990.47;4379320;32;20105;-72
2022/03/31 02:59:32;;;;;;;21.00;9.80;;;;;;;10.54;82.31;96986.62;4379534;32;20087;-72
2022/03/31 03:02:00;;;;;;;17.83;8.13;;;;;;;10.26;83.73;96986.38;4379300;32;20118;-72
2022/03/31 03:04:27;;;;;;;21.15;8.73;;;;;;;10.29;84.05;96988.63;4379381;32;20101;-72
2022/03/31 03:06:54;;;;;;;24.73;9.32;;;;;;;10.21;84.32;96991.34;4379287;32;20506;-72
2022/03/31 03:09:22;;;;;;;18.25;8.57;;;;;;;10.37;84.09;96985.97;4379515;32;20125;-72
2022/03/31 03:11:50;;;;;;;17.42;9.43;;;;;;;10.70;81.99;96982.97;4379331;32;20110;-72
2022/03/31 03:14:17;;;;;;;18.58;9.20;;;;;;;10.78;80.37;96982.91;4379094;32;20116;-72
2022/03/31 03:16:44;;;;;;;24.35;9.60;;;;;;;10.73;81.14;96979.19;4379125;32;20393;-72
2022/03/31 03:19:12;;;;;;;22.50;9.18;;;;;;;10.80;80.56;96967.00;4378977;32;20421;-72
2022/03/31 03:21:40;;;;;;;18.75;8.45;;;;;;;10.82;80.16;96971.06;4379523;32;20113;-72
2022/03/31 03:24:07;;;;;;;16.08;8.82;;;;;;;10.71;81.20;96971.50;4379163;32;20098;-72
2022/03/31 03:26:35;;;;;;;18.12;7.97;;;;;;;10.80;80.21;96970.41;4379034;32;20192;-72
2022/03/31 03:29:02;;;;;;;14.02;8.55;;;;;;;10.62;81.71;96972.63;4379084;32;20105;-72
2022/03/31 03:31:29;;;;;;;17.23;8.85;;;;;;;10.79;81.26;96981.06;4379205;32;20121;-72
2022/03/31 03:33:57;;;;;;;19.50;9.20;;;;;;;10.83;81.04;96970.06;4378954;32;20157;-72
2022/03/31 03:36:24;;;;;;;17.27;8.35;;;;;;;10.72;81.47;96967.91;4379022;32;20122;-72
2022/03/31 03:38:51;;;;;;;25.75;8.90;;;;;;;10.77;81.92;96960.31;4378788;32;20087;-72
2022/03/31 03:41:18;;;;;;;18.55;8.20;;;;;;;10.63;82.66;96963.78;4378855;32;20154;-72
2022/03/31 03:43:45;;;;;;;14.48;7.97;;;;;;;10.54;82.96;96951.78;4365388;32;20377;-72
2022/03/31 03:46:12;;;;;;;20.67;8.98;;;;;;;10.65;82.67;96952.09;4378866;32;20094;-72
2022/03/31 03:48:40;;;;;;;16.65;8.45;;;;;;;10.74;82.36;96947.59;4378742;32;20185;-72
2022/03/31 03:51:09;;;;;;;22.23;8.43;;;;;;;10.78;81.81;96940.16;4378879;32;20103;-72
2022/03/31 03:53:36;;;;;;;13.88;8.07;;;;;;;10.34;84.05;96944.47;4378744;32;20213;-72
2022/03/31 03:56:04;;;;;;;19.33;9.48;;;;;;;10.23;84.99;96945.66;4378823;32;20505;-72
2022/03/31 03:58:31;;;;;;;13.85;8.25;;;;;;;10.04;86.60;96949.63;4378776;32;20109;-73
2022/03/31 04:00:58;;;;;;;17.27;8.35;;;;;;;10.25;85.74;96948.09;4378629;32;20098;-72
2022/03/31 04:03:26;;;;;;;18.20;8.52;;;;;;;9.92;87.29;96940.59;4378571;32;20114;-72
2022/03/31 04:05:54;;;;;;;18.05;8.55;;;;;;;10.11;87.22;96944.50;4378471;32;20091;-72
2022/03/31 04:08:23;;;;;;;18.00;9.35;;;;;;;9.96;87.36;96936.63;4378414;32;20429;-72
2022/03/31 04:10:51;;;;;;;17.48;9.30;;;;;;;10.05;86.98;96939.97;4378487;32;20476;-72
2022/03/31 04:13:18;;;;;;;14.27;9.15;;;;;;;10.33;85.82;96936.75;4378541;32;20124;-72
2022/03/31 04:15:46;;;;;;;18.05;8.48;;;;;;;10.20;85.91;96934.75;4378483;32;20100;-72
2022/03/31 04:18:14;;;;;;;15.75;7.43;;;;;;;10.25;86.03;96935.03;4378197;32;20090;-73
2022/03/31 04:20:41;;;;;;;14.55;8.43;;;;;;;10.59;84.08;96926.66;4378225;32;20098;-72
2022/03/31 04:23:08;;;;;;;19.58;8.57;;;;;;;10.93;82.02;96932.28;4364933;32;20110;-73
2022/03/31 04:29:08;;;;;;;14.87;8.40;;;;;;;10.67;83.05;96936.19;4378361;32;20116;-73
2022/03/31 04:31:43;;;;;;;17.12;9.13;;;;;;;10.52;83.64;96936.22;4378212;32;20117;-73
2022/03/31 04:34:15;;;;;;;17.50;8.32;;;;;;;10.30;84.85;96938.72;4378176;32;20087;-72
2022/03/31 04:36:42;;;;;;;16.83;7.75;;;;;;;10.33;85.49;96940.22;4378122;32;20083;-72
2022/03/31 04:39:15;;;;;;;13.77;7.85;;;;;;;10.35;84.95;96937.41;4378161;32;20075;-73
2022/03/31 04:41:43;;;;;;;18.30;8.70;;;;;;;10.26;84.93;96927.00;4379560;32;20106;-73
2022/03/31 04:44:10;;;;;;;15.68;8.20;;;;;;;10.33;84.84;96926.28;4380333;32;20098;-72
2022/03/31 04:46:37;;;;;;;13.80;8.27;;;;;;;10.41;85.18;96923.59;4380196;32;20118;-73
2022/03/31 04:49:05;;;;;;;22.10;8.35;;;;;;;10.56;84.02;96921.78;4380172;32;20087;-73
2022/03/31 04:51:32;;;;;;;14.07;8.15;;;;;;;10.52;84.45;96919.72;4379832;32;20396;-73
2022/03/31 04:53:59;;;;;;;19.60;7.97;;;;;;;10.42;85.11;96920.81;4380285;32;20559;-73
2022/03/31 04:56:27;;;;;;;17.50;8.23;;;;;;;10.84;82.77;96908.03;4379886;32;20118;-73
2022/03/31 04:58:55;;;;;;;19.55;8.60;;;;;;;10.81;82.81;96917.03;4366210;32;20095;-73
2022/03/31 05:01:23;;;;;;;17.00;8.57;;;;;;;10.78;83.52;96922.66;4379942;32;20122;-73
2022/03/31 05:03:51;;;;;;;23.02;8.50;;;;;;;10.92;82.73;96920.19;4380051;32;20172;-73
2022/03/31 05:09:49;;;;;;;18.95;8.90;;;;;;;10.59;85.04;96910.94;4379764;32;20154;-73
2022/03/31 05:12:17;;;;;;;18.73;8.38;;;;;;;10.27;86.45;96912.13;4379814;32;20158;-71
2022/03/31 05:14:44;;;;;;;16.70;8.68;;;;;;;10.36;85.98;96912.88;4379574;32;20209;-73
2022/03/31 05:17:11;;;;;;;15.65;8.32;;;;;;;10.40;85.74;96916.72;4379319;32;20099;-73
2022/03/31 05:19:38;;;;;;;21.02;9.02;;;;;;;10.43;86.07;96918.97;4379419;32;20642;-73
2022/03/31 05:25:37;;;;;;;16.48;8.98;;;;;;;10.29;86.83;96918.81;4379649;32;20163;-73
2022/03/31 05:28:05;;;;;;;18.73;9.73;;;;;;;10.32;87.83;96915.00;4379850;32;20083;-73
2022/03/31 05:30:32;;;;;;;16.90;9.60;;;;;;;10.25;88.29;96907.06;4379810;32;20118;-73
2022/03/31 05:33:00;;;;;;;18.23;10.60;;;;;;;10.13;89.76;96914.56;4379686;32;20099;-73
2022/03/31 05:35:27;;;;;;;17.27;10.07;;;;;;;10.07;89.43;96914.47;4379713;32;20473;-73
2022/03/31 05:41:26;;;;;;;19.33;9.65;;;;;;;10.04;90.58;96914.81;4379829;32;20109;-73
2022/03/31 05:43:53;;;;;;;19.25;9.13;;;;;;;10.06;90.13;96918.06;4379396;32;20121;-73
2022/03/31 05:46:22;;;;;;;16.08;9.10;;;;;;;10.03;91.38;96905.34;4379434;32;20086;-72
2022/03/31 05:48:49;;;;;;;17.67;8.65;;;;;;;10.12;91.35;96907.69;4379547;32;20109;-73
2022/03/31 05:51:17;;;;;;;21.55;9.35;;;;;;;10.32;89.57;96909.75;4379298;32;20087;-73
2022/03/31 05:53:44;;;;;;;14.13;8.13;;;;;;;10.17;91.18;96914.19;4378847;32;20090;-73
2022/03/31 05:56:12;;;;;;;16.17;8.65;;;;;;;10.28;90.35;96909.31;4366251;32;20132;-73
2022/03/31 05:58:39;;;;;;;14.73;8.50;;;;;;;10.24;90.01;96912.47;4379441;32;20095;-73
2022/03/31 06:04:37;;;;;;;17.67;9.23;;;;;;;10.07;91.31;96923.13;4376576;32;78733;-73
2022/03/31 06:07:06;;;;;;;24.98;10.50;;;;;;;10.15;90.40;96913.56;4379214;32;20122;-73
2022/03/31 06:09:33;;;;;;;15.93;9.40;;;;;;;10.19;90.47;96920.03;4379294;32;20091;-73
2022/03/31 06:15:31;;;;;;;16.02;9.23;;;;;;;10.25;90.27;96914.91;4379289;32;20226;-73
2022/03/31 06:17:58;;;;;;;19.83;9.60;;;;;;;10.23;90.58;96914.25;4379077;32;20132;-74
2022/03/31 06:23:55;;;;;;;17.83;9.00;;;;;;;10.02;92.34;96930.69;4379560;32;20132;-72
2022/03/31 06:29:54;;;;;;;16.02;9.73;;;;;;;10.20;93.33;96932.94;4379590;32;20117;-72
2022/03/31 06:35:51;;;;;;;14.55;8.88;;;;;;;10.28;93.51;96935.50;4379423;32;20104;-72
2022/03/31 06:38:19;;;;;;;19.42;10.48;;;;;;;10.77;90.27;96943.78;4379124;32;20095;-73
2022/03/31 06:41:06;;;;;;;21.95;12.07;;;;;;;11.03;88.98;96942.47;4379249;32;20133;-73
2022/03/31 06:43:34;;;;;;;18.42;9.98;;;;;;;10.95;88.52;96941.56;4379254;32;20566;-74
2022/03/31 06:46:01;;;;;;;17.00;9.55;;;;;;;11.18;86.75;96946.66;4379227;32;20495;-74
2022/03/31 06:48:32;;;;;;;23.10;10.48;;;;;;;11.14;86.77;96950.66;4379394;32;20090;-72
2022/03/31 06:54:31;;;;;;;21.30;10.82;;;;;;;11.05;88.14;96953.56;4379164;32;20137;-74
2022/03/31 06:56:58;;;;;;;19.20;10.60;;;;;;;10.82;89.17;96957.97;4379249;32;20660;-73
2022/03/31 07:02:55;;;;;;;24.60;10.13;;;;;;;10.77;90.80;96957.69;4378864;32;20164;-72
2022/03/31 07:05:23;;;;;;;24.00;11.90;;;;;;;11.04;88.30;96950.16;4379054;32;20090;-73
2022/03/31 07:07:50;;;;;;;21.30;9.80;;;;;;;10.48;91.37;96943.63;4379020;32;20388;-73
2022/03/31 07:10:17;;;;;;;16.87;10.25;;;;;;;10.78;90.48;96934.91;4379121;32;20464;-73
2022/03/31 07:12:45;;;;;;;20.52;9.77;;;;;;;10.98;89.28;96935.16;4379294;32;20103;-74
2022/03/31 07:15:12;;;;;;;20.42;11.20;;;;;;;10.73;90.84;96938.09;4379206;32;20087;-72
2022/03/31 07:17:39;;;;;;;24.60;11.65;;;;;;;10.54;91.64;96933.44;4379051;32;20109;-70
2022/03/31 07:20:07;;;;;;;24.92;10.93;;;;;;;10.22;94.56;96927.53;4378942;32;20162;-71
2022/03/31 07:22:35;;;;;;;23.58;10.88;;;;;;;10.07;96.02;96927.56;4379098;32;20086;-71
2022/03/31 07:25:03;;;;;;;21.62;11.05;;;;;;;10.20;97.23;96925.09;4378956;32;20107;-72
2022/03/31 07:31:01;;;;;;;20.62;9.82;;;;;;;11.00;93.19;96933.97;4379069;32;20124;-71
2022/03/31 07:33:28;;;;;;;25.88;10.75;;;;;;;11.35;90.38;96928.06;4378842;32;20120;-72
2022/03/31 07:35:55;;;;;;;24.65;10.23;;;;;;;10.86;93.42;96924.34;4379337;32;20141;-72
2022/03/31 07:38:22;;;;;;;27.70;10.38;;;;;;;10.70;94.41;96925.38;4378733;32;20087;-71
2022/03/31 07:40:50;;;;;;;20.23;10.18;;;;;;;10.74;93.87;96929.25;4378682;32;20173;-72
2022/03/31 07:43:17;;;;;;;20.65;10.82;;;;;;;10.66;94.64;96931.97;4378948;32;20474;-71
2022/03/31 07:45:45;;;;;;;26.52;11.85;;;;;;;10.64;94.53;96926.94;4378807;32;20388;-73
2022/03/31 07:48:15;;;;;;;28.40;12.60;;;;;;;10.43;97.79;96925.06;4378895;32;20134;-72
2022/03/31 07:50:42;;;;;;;29.10;11.30;;;;;;;10.58;97.75;96921.59;4379057;32;20114;-71
2022/03/31 07:53:13;;;;;;;27.17;11.95;;;;;;;10.68;97.42;96924.75;4378564;32;20547;-72
2022/03/31 07:59:09;;;;;;;18.23;10.13;;;;;;;10.19;97.87;96928.72;4378522;32;20105;-70
2022/03/31 08:01:37;;;;;;;20.70;11.65;;;;;;;9.69;100.00;96931.00;4378091;32;20118;-71
2022/03/31 08:07:35;;;;;;;24.12;11.57;;;;;;;9.86;100.00;96925.62;4378434;32;20591;-70
2022/03/31 08:13:33;;;;;;;23.87;10.80;;;;;;;10.62;100.00;96922.84;4378380;32;20125;-70
2022/03/31 08:16:00;;;;;;;21.25;11.00;;;;;;;10.51;100.00;96918.91;4379415;32;20086;-70
2022/03/31 08:18:33;;;;;;;28.52;10.73;;;;;;;10.69;99.45;96915.91;4379975;32;20133;-70
2022/03/31 08:21:01;;;;;;;28.75;10.73;;;;;;;10.11;100.00;96908.69;4380293;32;20083;-70
2022/03/31 08:23:28;;;;;;;25.35;12.27;;;;;;;9.99;100.00;96907.50;4380227;32;20106;-70
2022/03/31 08:29:26;;;;;;;20.12;10.10;;;;;;;10.12;100.00;96894.59;4380115;32;20109;-70
2022/03/31 08:31:53;;;;;;;23.52;11.15;;;;;;;10.01;100.00;96884.59;4380122;32;20113;-70
2022/03/31 08:37:50;;;;;;;26.30;9.02;;;;;;;10.64;100.00;96882.41;4380271;32;20467;-70
2022/03/31 08:40:18;;;;;;;19.70;9.25;;;;;;;10.51;100.00;96890.09;4380102;32;20468;-70
2022/03/31 08:46:15;;;;;;;17.15;9.63;;;;;;;10.38;100.00;96877.66;4379564;32;20130;-71
2022/03/31 08:48:43;;;;;;;22.40;9.48;;;;;;;10.42;100.00;96878.91;4379843;32;20149;-71
2022/03/31 08:54:41;;;;;;;18.00;8.52;;;;;;;10.25;100.00;96875.66;4379934;32;20465;-72
2022/03/31 09:00:38;;;;;;;17.48;9.98;;;;;;;10.03;100.00;96864.28;4379533;32;20113;-71
2022/03/31 09:06:37;;;;;;;17.58;9.95;;;;;;;9.84;100.00;96862.22;4379667;32;20188;-70
2022/03/31 09:09:04;;;;;;;21.67;10.13;;;;;;;9.93;100.00;96855.91;4379345;32;20157;-72
2022/03/31 09:15:12;;;;;;;17.95;9.57;;;;;;;10.55;100.00;96851.28;4379539;32;20404;-71
2022/03/31 09:20:47;;;;;;;21.30;10.65;;;;;;;11.18;100.00;96836.56;4378574;32;20141;-72
2022/03/31 09:26:49;;;;;;;20.37;9.90;;;;;;;11.06;99.63;96826.81;4379327;32;20105;-72
2022/03/31 09:29:19;;;;;;;19.37;9.70;;;;;;;11.12;99.73;96828.66;4379331;32;20177;-71
2022/03/31 09:31:47;;;;;;;15.68;10.10;;;;;;;10.66;100.00;96832.47;4379522;32;20095;-71
2022/03/31 09:37:45;;;;;;;23.00;10.95;;;;;;;10.68;100.00;96821.81;4379555;32;20483;-72
2022/03/31 09:40:12;;;;;;;25.42;10.48;;;;;;;10.54;100.00;96828.72;4379262;32;20112;-72
2022/03/31 09:46:28;;;;;;;20.27;10.73;;;;;;;10.61;100.00;96811.25;4379653;32;20157;-68
2022/03/31 09:49:09;;;;;;;18.20;10.15;;;;;;;10.63;100.00;96817.13;4379518;32;20159;-70
2022/03/31 09:55:08;;;;;;;17.58;9.57;;;;;;;10.71;100.00;96801.28;4379594;32;20156;-70
2022/03/31 09:57:38;;;;;;;18.37;10.18;;;;;;;10.95;100.00;96804.53;4379484;32;20121;-71
2022/03/31 10:00:06;;;;;;;16.87;10.25;;;;;;;11.04;100.00;96803.41;4379436;32;20393;-71
2022/03/31 10:06:08;;;;;;;17.30;9.60;;;;;;;10.86;100.00;96803.06;4379627;32;20129;-71
2022/03/31 10:08:44;;;;;;;20.17;10.25;;;;;;;10.17;100.00;96804.28;4379394;32;20157;-70
2022/03/31 10:11:17;;;;;;;20.00;10.45;;;;;;;9.98;100.00;96803.88;4367356;32;20082;-71
2022/03/31 10:17:16;;;;;;;19.77;10.68;;;;;;;9.73;100.00;96798.91;4379721;32;20184;-72
2022/03/31 10:19:44;;;;;;;24.45;10.95;;;;;;;9.92;100.00;96794.94;4379397;32;20175;-72
2022/03/31 10:28:34;;;;;;;23.95;10.05;;;;;;;10.11;100.00;96792.75;4379009;32;20118;-71
2022/03/31 10:31:04;;;;;;;21.65;11.85;;;;;;;10.04;100.00;96786.63;4379466;32;20157;-72
2022/03/31 10:33:34;;;;;;;24.17;11.98;;;;;;;9.70;100.00;96795.84;4379375;32;20157;-70
2022/03/31 10:36:12;;;;;;;31.58;11.30;;;;;;;9.90;100.00;96796.94;4379381;32;20074;-71
2022/03/31 10:38:51;;;;;;;18.42;10.57;;;;;;;10.02;100.00;96794.66;4378520;32;20431;-74
2022/03/31 10:41:19;;;;;;;17.48;10.30;;;;;;;10.25;100.00;96789.31;4379579;32;20122;-71
2022/03/31 10:43:47;;;;;;;15.70;9.55;;;;;;;10.05;100.00;96794.31;4379391;32;20428;-71
2022/03/31 10:46:19;;;;;;;20.30;11.57;;;;;;;10.12;100.00;96779.47;4379306;32;20153;-71
2022/03/31 10:52:23;;;;;;;16.67;10.30;;;;;;;10.00;100.00;96752.16;4379162;32;20197;-71
2022/03/31 10:54:51;;;;;;;15.95;8.60;;;;;;;10.62;100.00;96747.41;4379250;32;20075;-71
2022/03/31 10:57:19;;;;;;;21.50;9.88;;;;;;;10.88;100.00;96746.03;4379588;32;20109;-71
2022/03/31 11:03:16;;;;;;;14.80;9.90;;;;;;;10.68;100.00;96736.19;4379327;32;20853;-71
2022/03/31 11:05:47;;;;;;;14.63;8.77;;;;;;;11.04;100.00;96732.66;4379105;32;20108;-71
2022/03/31 11:08:17;;;;;;;14.43;8.27;;;;;;;11.28;100.00;96731.41;4379095;32;20425;-70
2022/03/31 11:14:17;;;;;;;15.35;9.15;;;;;;;11.48;100.00;96734.16;4378864;32;20121;-72
2022/03/31 11:16:49;;;;;;;15.68;8.45;;;;;;;11.35;100.00;96719.19;4379098;32;20464;-71
2022/03/31 11:19:19;;;;;;;15.95;8.27;;;;;;;10.78;100.00;96723.59;4378973;32;20083;-70
2022/03/31 11:25:10;;;;;;;12.20;7.72;;;;;;;11.46;100.00;96714.38;4379000;32;20449;-70
2022/03/31 11:27:41;;;;;;;13.93;8.45;;;;;;;11.64;100.00;96722.56;4378851;32;20491;-72
2022/03/31 11:33:38;;;;;;;16.52;8.25;;;;;;;11.57;100.00;96705.12;4378812;32;20164;-71
2022/03/31 11:36:05;;;;;;;13.27;8.20;;;;;;;11.68;100.00;96705.41;4378734;32;20095;-72
2022/03/31 11:42:08;;;;;;;15.30;8.07;;;;;;;11.23;100.00;96707.59;4378578;32;20142;-70
2022/03/31 11:48:08;;;;;;;14.38;8.38;;;;;;;10.62;100.00;96690.63;4378692;32;20577;-70
2022/03/31 11:54:08;;;;;;;18.25;9.20;;;;;;;10.97;100.00;96682.03;4378643;32;20103;-72
2022/03/31 11:56:36;;;;;;;17.35;9.15;;;;;;;10.78;100.00;96683.47;4378401;32;20536;-72
2022/03/31 11:59:05;;;;;;;20.58;9.32;;;;;;;10.90;100.00;96675.91;4378488;32;20098;-72
2022/03/31 12:01:47;;;;;;;17.65;10.25;;;;;;;10.98;100.00;96671.34;4378354;32;20365;-72
2022/03/31 12:04:22;;;;;;;16.70;7.83;;;;;;;10.63;100.00;96660.81;4378530;32;20119;-72
2022/03/31 12:06:51;;;;;;;22.85;11.05;;;;;;;10.88;100.00;96657.78;4378593;32;20511;-72
2022/03/31 12:09:19;;;;;;;19.37;10.18;;;;;;;10.75;100.00;96652.44;4378571;32;20403;-72
2022/03/31 12:11:48;;;;;;;25.30;10.63;;;;;;;10.36;100.00;96649.31;4364937;32;20095;-73
2022/03/31 12:14:16;;;;;;;18.67;9.45;;;;;;;10.74;100.00;96641.16;4378506;32;20133;-71
2022/03/31 12:16:52;;;;;;;16.25;10.88;;;;;;;10.18;100.00;96641.06;4378500;32;20145;-71
2022/03/31 12:19:20;;;;;;;16.62;9.02;;;;;;;10.30;100.00;96639.56;4378366;32;20424;-71
2022/03/31 12:21:52;;;;;;;16.35;8.45;;;;;;;10.43;100.00;96634.50;4378207;32;20082;-72
2022/03/31 12:24:20;;;;;;;21.27;10.00;;;;;;;10.65;100.00;96639.69;4378423;32;20126;-72
2022/03/31 12:30:18;;;;;;;22.27;10.85;;;;;;;10.85;100.00;96631.97;4378132;32;20109;-71
2022/03/31 12:36:23;;;;;;;21.25;10.10;;;;;;;11.05;100.00;96632.06;4378024;32;20113;-71
2022/03/31 12:42:21;;;;;;;16.87;9.23;;;;;;;10.85;100.00;96620.69;4377973;32;20117;-72
2022/03/31 12:48:19;;;;;;;16.90;9.50;;;;;;;10.56;100.00;96628.53;4377957;32;20136;-73
2022/03/31 12:54:33;;;;;;;20.02;11.38;;;;;;;10.01;100.00;96609.94;4377872;32;20507;-72
2022/03/31 12:57:06;;;;;;;18.52;10.30;;;;;;;9.99;100.00;96603.25;4377837;32;20103;-73
2022/03/31 12:59:34;;;;;;;15.52;9.48;;;;;;;10.02;100.00;96595.88;4378183;32;20097;-72
2022/03/31 13:05:22;;;;;;;24.48;11.65;;;;;;;10.30;100.00;96611.59;4380203;32;20122;-72
2022/03/31 13:11:20;;;;;;;21.35;10.20;;;;;;;10.35;100.00;96616.28;4380026;32;20100;-73
2022/03/31 13:17:19;;;;;;;15.77;9.55;;;;;;;10.29;100.00;96603.94;4380066;32;20153;-74
2022/03/31 13:19:47;;;;;;;17.00;8.63;;;;;;;10.18;100.00;96601.84;4379906;32;20151;-73
2022/03/31 13:22:20;;;;;;;17.08;10.68;;;;;;;10.38;100.00;96594.16;4379433;32;20091;-73
2022/03/31 13:24:48;;;;;;;15.02;8.70;;;;;;;10.34;100.00;96585.91;4379862;32;20610;-73
2022/03/31 13:27:17;;;;;;;20.55;11.98;;;;;;;10.63;100.00;96589.31;4379845;32;20437;-74
2022/03/31 13:29:44;;;;;;;18.67;10.63;;;;;;;10.32;100.00;96597.50;4379927;32;20120;-74
2022/03/31 13:32:12;;;;;;;21.85;10.95;;;;;;;9.74;100.00;96591.34;4379766;32;20465;-74
2022/03/31 13:34:46;;;;;;;31.27;11.02;;;;;;;9.89;100.00;96591.31;4379788;32;20098;-73
2022/03/31 13:37:15;;;;;;;25.10;10.73;;;;;;;9.89;100.00;96591.31;4379874;32;20083;-73
2022/03/31 13:39:43;;;;;;;21.55;11.45;;;;;;;10.26;100.00;96588.59;4379405;32;20113;-73
2022/03/31 13:42:11;;;;;;;16.62;10.25;;;;;;;9.99;100.00;96572.66;4379829;32;20082;-74
2022/03/31 13:44:39;;;;;;;18.70;10.73;;;;;;;9.89;100.00;96573.00;4379705;32;20098;-73
2022/03/31 13:47:08;;;;;;;20.88;11.23;;;;;;;10.21;100.00;96572.66;4379686;32;20168;-73
2022/03/31 13:49:36;;;;;;;25.15;8.95;;;;;;;9.89;100.00;96566.97;4379699;32;20075;-75
2022/03/31 13:52:04;;;;;;;24.92;10.15;;;;;;;10.15;100.00;96562.97;4379736;32;20122;-73
2022/03/31 13:54:34;;;;;;;16.77;9.27;;;;;;;10.04;100.00;96559.84;4379724;32;20090;-75
2022/03/31 13:57:02;;;;;;;21.10;10.52;;;;;;;10.00;100.00;96544.72;4379375;32;20086;-76
2022/03/31 14:02:16;;;;;;;20.75;9.95;;;;;;;10.30;100.00;96551.41;4366108;32;20078;-75
2022/03/31 14:04:44;;;;;;;14.70;10.05;;;;;;;10.52;100.00;96542.72;4379563;32;20118;-75
2022/03/31 14:10:41;;;;;;;22.75;11.12;;;;;;;10.09;100.00;96533.94;4379594;32;20560;-73
2022/03/31 14:13:09;;;;;;;24.48;11.93;;;;;;;10.17;100.00;96534.78;4378767;32;20166;-73
2022/03/31 14:15:37;;;;;;;18.87;11.02;;;;;;;10.13;100.00;96527.31;4379598;32;20114;-75
2022/03/31 14:18:06;;;;;;;23.95;10.98;;;;;;;10.39;100.00;96517.28;4379493;32;20369;-74